Airfield :







YOU CAN JOIN US ON...

 
LOGIN :

Register | Disclaimer

   EN    FR    IT 

 









Legend :    VFR   Marginal VFR   IFR   Intensive IFR   Very Intensive IFR
Visi :
Ceiling :
>= 8 km
>= 3000ft
5 to 8 km
1000 to 3000 ft
1500m to 5 km
500 to 1000 ft
800 to 1500m
200 to 500 ft
< 800m
< 200 ft
Symbols :   Thunderstorms  Fog  Heavy snow  Heavy precipitations  Wind > 20 kt






- Airport Elevation : 1005 ft
- IATA code : YAH


CYAH - La Grande-4

EXPIRED METARs :
  • 291500Z AUTO 23022G28KT 3/8SM SN VV014 M07/M09 A2960 RMK SLP048
  • 291414Z AUTO 23017G23KT 3/4SM -SN BKN023 OVC035 M07/M09 A2962 RMK SLP055

TAF AMD TAF CYAH
Valid from the 29 at 14:00 until the 29 at 21:00 UTC


291434Z 2914/2921 26015G25KT 6SM -SHSN SCT015 BKN040
TEMPO 2914/2916 3/4SM -SHSN OVC015
FM291600 26015G25KT 6SM -SHSN SCT015 BKN040
TEMPO 2916/2921 11/2SM -SHSN BKN015 BKN040
PROB30 2916/2921 3/4SM -SHSN BLSN OVC015 RMK FCST BASED ON AUTO OBS. NXT FCST BY 291800Z
CZUL FIR / North America



MET'MAP, your aeronautical weather chart ! - Copyright ORBIFLY December 2007 - Disclaimer

ORBIFLY MET'MAP TEAM :

Programming & Development : Alexandra Zaïnal
Concept & original design : Baudouin d'Aumeries
Assistance for programming : Marc-Olivier Méhu
Technical & hardware support : Manuel Goepfert

Contact : metmap@orbifly.com




SOURCES & CREDITS :

   NOAA